sensor_id;sensor_type;location;lat;lon;timestamp;P1;durP1;ratioP1;P2;durP2;ratioP2
3795;SDS011;1913;50.660;7.834;2022-12-16T00:02:14;6.20;;;3.60;;
3795;SDS011;1913;50.660;7.834;2022-12-16T00:04:42;6.27;;;3.43;;
3795;SDS011;1913;50.660;7.834;2022-12-16T00:07:12;6.10;;;3.30;;
3795;SDS011;1913;50.660;7.834;2022-12-16T00:09:38;3.20;;;2.10;;
3795;SDS011;1913;50.660;7.834;2022-12-16T00:12:04;2.57;;;1.93;;
3795;SDS011;1913;50.660;7.834;2022-12-16T00:14:29;5.97;;;2.90;;
3795;SDS011;1913;50.660;7.834;2022-12-16T00:16:55;5.00;;;2.67;;
3795;SDS011;1913;50.660;7.834;2022-12-16T00:19:21;2.13;;;1.93;;
3795;SDS011;1913;50.660;7.834;2022-12-16T00:21:46;3.73;;;2.07;;
3795;SDS011;1913;50.660;7.834;2022-12-16T00:24:14;3.97;;;2.73;;
3795;SDS011;1913;50.660;7.834;2022-12-16T00:26:40;5.40;;;2.97;;
3795;SDS011;1913;50.660;7.834;2022-12-16T00:29:05;6.07;;;3.43;;
3795;SDS011;1913;50.660;7.834;2022-12-16T00:31:40;4.50;;;2.53;;
3795;SDS011;1913;50.660;7.834;2022-12-16T00:34:05;6.17;;;2.40;;
3795;SDS011;1913;50.660;7.834;2022-12-16T00:36:31;4.03;;;2.27;;
3795;SDS011;1913;50.660;7.834;2022-12-16T00:39:00;5.63;;;2.27;;
3795;SDS011;1913;50.660;7.834;2022-12-16T00:41:25;3.90;;;1.83;;
3795;SDS011;1913;50.660;7.834;2022-12-16T00:43:51;2.80;;;1.70;;
3795;SDS011;1913;50.660;7.834;2022-12-16T00:46:17;5.93;;;1.70;;
3795;SDS011;1913;50.660;7.834;2022-12-16T00:48:42;6.60;;;1.70;;
3795;SDS011;1913;50.660;7.834;2022-12-16T00:51:08;3.23;;;2.07;;
3795;SDS011;1913;50.660;7.834;2022-12-16T00:53:33;3.23;;;2.30;;
3795;SDS011;1913;50.660;7.834;2022-12-16T00:56:03;5.33;;;1.90;;
3795;SDS011;1913;50.660;7.834;2022-12-16T00:58:33;3.27;;;1.70;;
3795;SDS011;1913;50.660;7.834;2022-12-16T01:00:59;20.97;;;2.73;;
3795;SDS011;1913;50.660;7.834;2022-12-16T01:03:33;7.20;;;1.80;;
3795;SDS011;1913;50.660;7.834;2022-12-16T01:05:59;8.33;;;2.40;;
3795;SDS011;1913;50.660;7.834;2022-12-16T01:08:25;6.13;;;2.57;;
3795;SDS011;1913;50.660;7.834;2022-12-16T01:10:55;5.20;;;2.60;;
3795;SDS011;1913;50.660;7.834;2022-12-16T01:13:22;3.70;;;2.23;;
3795;SDS011;1913;50.660;7.834;2022-12-16T01:15:49;3.50;;;2.33;;
3795;SDS011;1913;50.660;7.834;2022-12-16T01:18:51;4.20;;;2.20;;
3795;SDS011;1913;50.660;7.834;2022-12-16T01:21:22;5.33;;;3.10;;
3795;SDS011;1913;50.660;7.834;2022-12-16T01:23:47;9.50;;;4.10;;
3795;SDS011;1913;50.660;7.834;2022-12-16T01:26:15;13.27;;;4.03;;
3795;SDS011;1913;50.660;7.834;2022-12-16T01:28:42;12.37;;;4.43;;
3795;SDS011;1913;50.660;7.834;2022-12-16T01:31:08;7.83;;;3.50;;
3795;SDS011;1913;50.660;7.834;2022-12-16T01:33:33;8.07;;;3.90;;
3795;SDS011;1913;50.660;7.834;2022-12-16T01:36:00;7.50;;;3.83;;
3795;SDS011;1913;50.660;7.834;2022-12-16T01:38:26;9.40;;;4.17;;
3795;SDS011;1913;50.660;7.834;2022-12-16T01:40:52;7.73;;;3.57;;
3795;SDS011;1913;50.660;7.834;2022-12-16T01:43:24;7.40;;;3.10;;
3795;SDS011;1913;50.660;7.834;2022-12-16T01:45:53;7.57;;;2.80;;
3795;SDS011;1913;50.660;7.834;2022-12-16T01:48:40;5.10;;;2.60;;
3795;SDS011;1913;50.660;7.834;2022-12-16T01:51:34;7.50;;;2.70;;
3795;SDS011;1913;50.660;7.834;2022-12-16T01:54:23;6.73;;;2.20;;
3795;SDS011;1913;50.660;7.834;2022-12-16T01:56:55;4.70;;;2.40;;
3795;SDS011;1913;50.660;7.834;2022-12-16T01:59:24;3.93;;;1.90;;
3795;SDS011;1913;50.660;7.834;2022-12-16T02:01:56;3.93;;;2.27;;
3795;SDS011;1913;50.660;7.834;2022-12-16T02:04:33;4.97;;;2.43;;
3795;SDS011;1913;50.660;7.834;2022-12-16T02:06:59;5.47;;;2.27;;
3795;SDS011;1913;50.660;7.834;2022-12-16T02:09:31;3.93;;;1.90;;
3795;SDS011;1913;50.660;7.834;2022-12-16T02:12:10;11.00;;;3.40;;
3795;SDS011;1913;50.660;7.834;2022-12-16T02:23:51;2.83;;;1.70;;
3795;SDS011;1913;50.660;7.834;2022-12-16T02:26:43;3.60;;;1.97;;
3795;SDS011;1913;50.660;7.834;2022-12-16T02:32:16;10.03;;;3.50;;
3795;SDS011;1913;50.660;7.834;2022-12-16T02:38:13;4.40;;;2.50;;
3795;SDS011;1913;50.660;7.834;2022-12-16T02:46:03;5.20;;;2.20;;
3795;SDS011;1913;50.660;7.834;2022-12-16T02:48:34;5.30;;;2.43;;
3795;SDS011;1913;50.660;7.834;2022-12-16T02:51:00;3.70;;;1.93;;
3795;SDS011;1913;50.660;7.834;2022-12-16T02:53:25;3.50;;;1.60;;
3795;SDS011;1913;50.660;7.834;2022-12-16T02:56:02;3.03;;;1.60;;
3795;SDS011;1913;50.660;7.834;2022-12-16T03:04:18;4.50;;;1.80;;
3795;SDS011;1913;50.660;7.834;2022-12-16T03:07:12;4.73;;;2.30;;
3795;SDS011;1913;50.660;7.834;2022-12-16T03:09:39;2.70;;;1.63;;
3795;SDS011;1913;50.660;7.834;2022-12-16T03:12:08;3.20;;;2.07;;
3795;SDS011;1913;50.660;7.834;2022-12-16T03:14:41;3.53;;;2.20;;
3795;SDS011;1913;50.660;7.834;2022-12-16T03:17:09;3.80;;;2.07;;
3795;SDS011;1913;50.660;7.834;2022-12-16T03:19:37;2.60;;;2.00;;
3795;SDS011;1913;50.660;7.834;2022-12-16T03:24:41;3.10;;;2.13;;
3795;SDS011;1913;50.660;7.834;2022-12-16T03:27:11;6.77;;;2.70;;
3795;SDS011;1913;50.660;7.834;2022-12-16T03:35:18;4.13;;;2.50;;
3795;SDS011;1913;50.660;7.834;2022-12-16T03:38:07;5.90;;;2.77;;
3795;SDS011;1913;50.660;7.834;2022-12-16T03:40:38;7.23;;;2.57;;
3795;SDS011;1913;50.660;7.834;2022-12-16T03:43:06;4.57;;;2.30;;
3795;SDS011;1913;50.660;7.834;2022-12-16T03:45:35;4.40;;;2.20;;
3795;SDS011;1913;50.660;7.834;2022-12-16T03:48:07;5.47;;;2.13;;
3795;SDS011;1913;50.660;7.834;2022-12-16T03:50:34;3.27;;;1.90;;
3795;SDS011;1913;50.660;7.834;2022-12-16T03:53:02;5.20;;;2.63;;
3795;SDS011;1913;50.660;7.834;2022-12-16T03:55:28;4.47;;;2.10;;
3795;SDS011;1913;50.660;7.834;2022-12-16T03:57:56;4.00;;;1.73;;
3795;SDS011;1913;50.660;7.834;2022-12-16T04:00:23;3.97;;;1.70;;
3795;SDS011;1913;50.660;7.834;2022-12-16T04:02:49;5.03;;;2.00;;
3795;SDS011;1913;50.660;7.834;2022-12-16T04:05:16;7.43;;;1.73;;
3795;SDS011;1913;50.660;7.834;2022-12-16T04:07:41;3.30;;;1.70;;
3795;SDS011;1913;50.660;7.834;2022-12-16T04:10:07;2.70;;;1.57;;
3795;SDS011;1913;50.660;7.834;2022-12-16T04:12:36;1.70;;;1.30;;
3795;SDS011;1913;50.660;7.834;2022-12-16T04:15:20;3.10;;;1.70;;
3795;SDS011;1913;50.660;7.834;2022-12-16T04:18:12;3.83;;;1.43;;
3795;SDS011;1913;50.660;7.834;2022-12-16T04:20:59;1.30;;;1.20;;
3795;SDS011;1913;50.660;7.834;2022-12-16T04:23:51;4.73;;;1.30;;
3795;SDS011;1913;50.660;7.834;2022-12-16T04:26:39;3.30;;;1.30;;
3795;SDS011;1913;50.660;7.834;2022-12-16T04:29:24;5.80;;;1.20;;
3795;SDS011;1913;50.660;7.834;2022-12-16T04:31:50;5.97;;;1.50;;
3795;SDS011;1913;50.660;7.834;2022-12-16T04:34:16;4.73;;;1.17;;
3795;SDS011;1913;50.660;7.834;2022-12-16T04:36:52;1.27;;;1.00;;
3795;SDS011;1913;50.660;7.834;2022-12-16T04:39:37;3.23;;;1.33;;
3795;SDS011;1913;50.660;7.834;2022-12-16T04:42:22;6.40;;;1.93;;
3795;SDS011;1913;50.660;7.834;2022-12-16T04:45:09;2.90;;;1.47;;
3795;SDS011;1913;50.660;7.834;2022-12-16T04:47:53;2.30;;;1.00;;
3795;SDS011;1913;50.660;7.834;2022-12-16T04:50:45;10.23;;;1.43;;
3795;SDS011;1913;50.660;7.834;2022-12-16T04:53:29;1.90;;;1.17;;
3795;SDS011;1913;50.660;7.834;2022-12-16T04:56:14;1.60;;;1.50;;
3795;SDS011;1913;50.660;7.834;2022-12-16T04:58:58;2.00;;;1.10;;
3795;SDS011;1913;50.660;7.834;2022-12-16T05:01:42;8.33;;;1.70;;
3795;SDS011;1913;50.660;7.834;2022-12-16T05:04:26;2.10;;;1.47;;
3795;SDS011;1913;50.660;7.834;2022-12-16T05:07:11;5.93;;;1.67;;
3795;SDS011;1913;50.660;7.834;2022-12-16T05:09:55;1.80;;;1.40;;
3795;SDS011;1913;50.660;7.834;2022-12-16T05:12:39;2.50;;;1.00;;
3795;SDS011;1913;50.660;7.834;2022-12-16T05:15:26;3.93;;;2.20;;
3795;SDS011;1913;50.660;7.834;2022-12-16T05:18:11;5.80;;;2.37;;
3795;SDS011;1913;50.660;7.834;2022-12-16T05:20:57;4.73;;;2.20;;
3795;SDS011;1913;50.660;7.834;2022-12-16T05:23:43;4.37;;;2.73;;
3795;SDS011;1913;50.660;7.834;2022-12-16T05:26:28;3.60;;;1.30;;
3795;SDS011;1913;50.660;7.834;2022-12-16T05:29:14;3.43;;;1.50;;
3795;SDS011;1913;50.660;7.834;2022-12-16T05:31:59;3.27;;;1.33;;
3795;SDS011;1913;50.660;7.834;2022-12-16T05:34:44;1.33;;;1.23;;
3795;SDS011;1913;50.660;7.834;2022-12-16T05:37:28;4.73;;;2.40;;
3795;SDS011;1913;50.660;7.834;2022-12-16T05:40:15;6.47;;;2.60;;
3795;SDS011;1913;50.660;7.834;2022-12-16T05:43:05;5.00;;;2.23;;
3795;SDS011;1913;50.660;7.834;2022-12-16T05:45:49;7.73;;;2.17;;
3795;SDS011;1913;50.660;7.834;2022-12-16T05:48:34;2.23;;;1.70;;
3795;SDS011;1913;50.660;7.834;2022-12-16T05:51:19;2.63;;;1.53;;
3795;SDS011;1913;50.660;7.834;2022-12-16T05:54:03;4.13;;;1.67;;
3795;SDS011;1913;50.660;7.834;2022-12-16T05:56:47;1.77;;;1.23;;
3795;SDS011;1913;50.660;7.834;2022-12-16T05:59:31;2.90;;;1.30;;
3795;SDS011;1913;50.660;7.834;2022-12-16T06:02:16;1.10;;;1.00;;
3795;SDS011;1913;50.660;7.834;2022-12-16T06:05:00;1.93;;;0.97;;
3795;SDS011;1913;50.660;7.834;2022-12-16T06:07:49;2.30;;;1.10;;
3795;SDS011;1913;50.660;7.834;2022-12-16T06:10:37;3.90;;;1.30;;
3795;SDS011;1913;50.660;7.834;2022-12-16T06:13:21;1.60;;;1.20;;
3795;SDS011;1913;50.660;7.834;2022-12-16T06:16:05;2.90;;;1.20;;
3795;SDS011;1913;50.660;7.834;2022-12-16T06:18:50;3.37;;;1.20;;
3795;SDS011;1913;50.660;7.834;2022-12-16T06:21:34;2.37;;;1.20;;
3795;SDS011;1913;50.660;7.834;2022-12-16T06:24:18;4.33;;;1.53;;
3795;SDS011;1913;50.660;7.834;2022-12-16T06:27:02;3.43;;;1.27;;
3795;SDS011;1913;50.660;7.834;2022-12-16T06:29:47;4.33;;;1.00;;
3795;SDS011;1913;50.660;7.834;2022-12-16T06:32:31;2.97;;;1.30;;
3795;SDS011;1913;50.660;7.834;2022-12-16T06:35:15;2.70;;;1.30;;
3795;SDS011;1913;50.660;7.834;2022-12-16T06:38:03;3.10;;;1.40;;
3795;SDS011;1913;50.660;7.834;2022-12-16T06:40:47;1.30;;;1.20;;
3795;SDS011;1913;50.660;7.834;2022-12-16T06:43:42;3.53;;;1.50;;
3795;SDS011;1913;50.660;7.834;2022-12-16T06:46:26;1.47;;;1.17;;
3795;SDS011;1913;50.660;7.834;2022-12-16T06:49:10;3.10;;;2.00;;
3795;SDS011;1913;50.660;7.834;2022-12-16T06:51:57;8.70;;;4.67;;
3795;SDS011;1913;50.660;7.834;2022-12-16T06:54:41;14.53;;;4.17;;
3795;SDS011;1913;50.660;7.834;2022-12-16T06:57:25;2.60;;;1.90;;
3795;SDS011;1913;50.660;7.834;2022-12-16T07:00:09;3.93;;;1.50;;
3795;SDS011;1913;50.660;7.834;2022-12-16T07:02:54;1.40;;;1.30;;
3795;SDS011;1913;50.660;7.834;2022-12-16T07:05:38;1.20;;;1.00;;
3795;SDS011;1913;50.660;7.834;2022-12-16T07:08:25;1.17;;;0.80;;
3795;SDS011;1913;50.660;7.834;2022-12-16T07:11:20;1.03;;;0.93;;
3795;SDS011;1913;50.660;7.834;2022-12-16T07:14:05;1.40;;;1.00;;
3795;SDS011;1913;50.660;7.834;2022-12-16T07:16:49;1.30;;;1.00;;
3795;SDS011;1913;50.660;7.834;2022-12-16T07:19:33;0.70;;;0.70;;
3795;SDS011;1913;50.660;7.834;2022-12-16T07:22:18;1.00;;;1.00;;
3795;SDS011;1913;50.660;7.834;2022-12-16T07:25:02;1.03;;;0.97;;
3795;SDS011;1913;50.660;7.834;2022-12-16T07:27:46;2.73;;;0.80;;
3795;SDS011;1913;50.660;7.834;2022-12-16T07:30:31;2.07;;;1.37;;
3795;SDS011;1913;50.660;7.834;2022-12-16T07:33:15;1.27;;;0.90;;
3795;SDS011;1913;50.660;7.834;2022-12-16T07:35:59;3.40;;;1.23;;
3795;SDS011;1913;50.660;7.834;2022-12-16T07:38:43;1.20;;;0.97;;
3795;SDS011;1913;50.660;7.834;2022-12-16T07:41:33;1.10;;;0.90;;
3795;SDS011;1913;50.660;7.834;2022-12-16T07:44:17;1.27;;;1.10;;
3795;SDS011;1913;50.660;7.834;2022-12-16T07:47:02;2.00;;;0.90;;
3795;SDS011;1913;50.660;7.834;2022-12-16T07:49:46;4.20;;;1.17;;
3795;SDS011;1913;50.660;7.834;2022-12-16T07:52:36;1.63;;;0.80;;
3795;SDS011;1913;50.660;7.834;2022-12-16T07:55:20;3.60;;;1.30;;
3795;SDS011;1913;50.660;7.834;2022-12-16T07:58:07;4.47;;;2.50;;
3795;SDS011;1913;50.660;7.834;2022-12-16T08:00:54;9.40;;;3.00;;
3795;SDS011;1913;50.660;7.834;2022-12-16T08:03:38;4.03;;;2.40;;
3795;SDS011;1913;50.660;7.834;2022-12-16T08:06:22;5.80;;;2.73;;
3795;SDS011;1913;50.660;7.834;2022-12-16T08:09:06;3.73;;;2.07;;
3795;SDS011;1913;50.660;7.834;2022-12-16T08:11:53;3.33;;;1.97;;
3795;SDS011;1913;50.660;7.834;2022-12-16T08:14:37;4.40;;;2.13;;
3795;SDS011;1913;50.660;7.834;2022-12-16T08:17:22;4.13;;;1.97;;
3795;SDS011;1913;50.660;7.834;2022-12-16T08:20:06;2.33;;;1.80;;
3795;SDS011;1913;50.660;7.834;2022-12-16T08:22:51;3.23;;;1.60;;
3795;SDS011;1913;50.660;7.834;2022-12-16T08:25:35;2.07;;;1.20;;
3795;SDS011;1913;50.660;7.834;2022-12-16T08:28:22;1.80;;;1.40;;
3795;SDS011;1913;50.660;7.834;2022-12-16T08:31:06;3.53;;;3.20;;
3795;SDS011;1913;50.660;7.834;2022-12-16T08:33:50;1.50;;;1.30;;
3795;SDS011;1913;50.660;7.834;2022-12-16T08:36:34;1.30;;;1.20;;
3795;SDS011;1913;50.660;7.834;2022-12-16T08:39:19;3.20;;;1.27;;
3795;SDS011;1913;50.660;7.834;2022-12-16T08:42:03;3.33;;;1.60;;
3795;SDS011;1913;50.660;7.834;2022-12-16T08:44:48;1.50;;;1.20;;
3795;SDS011;1913;50.660;7.834;2022-12-16T08:47:32;1.27;;;1.00;;
3795;SDS011;1913;50.660;7.834;2022-12-16T08:50:16;2.57;;;1.40;;
3795;SDS011;1913;50.660;7.834;2022-12-16T08:53:03;2.03;;;1.40;;
3795;SDS011;1913;50.660;7.834;2022-12-16T08:55:48;2.73;;;1.53;;
3795;SDS011;1913;50.660;7.834;2022-12-16T08:58:32;20.57;;;7.70;;
3795;SDS011;1913;50.660;7.834;2022-12-16T09:01:16;6.10;;;2.73;;
3795;SDS011;1913;50.660;7.834;2022-12-16T09:04:13;3.90;;;2.90;;
3795;SDS011;1913;50.660;7.834;2022-12-16T09:07:03;3.77;;;2.80;;
3795;SDS011;1913;50.660;7.834;2022-12-16T09:09:50;1.70;;;1.57;;
3795;SDS011;1913;50.660;7.834;2022-12-16T09:12:34;3.53;;;1.50;;
3795;SDS011;1913;50.660;7.834;2022-12-16T09:15:19;3.07;;;1.60;;
3795;SDS011;1913;50.660;7.834;2022-12-16T09:18:05;2.50;;;1.43;;
3795;SDS011;1913;50.660;7.834;2022-12-16T09:20:50;10.17;;;5.40;;
3795;SDS011;1913;50.660;7.834;2022-12-16T09:23:40;12.57;;;6.70;;
3795;SDS011;1913;50.660;7.834;2022-12-16T09:26:25;3.90;;;2.90;;
3795;SDS011;1913;50.660;7.834;2022-12-16T09:29:09;3.40;;;2.40;;
3795;SDS011;1913;50.660;7.834;2022-12-16T09:31:55;3.00;;;1.90;;
3795;SDS011;1913;50.660;7.834;2022-12-16T09:34:40;2.40;;;1.80;;
3795;SDS011;1913;50.660;7.834;2022-12-16T09:37:30;2.73;;;1.83;;
3795;SDS011;1913;50.660;7.834;2022-12-16T09:40:15;3.00;;;2.00;;
3795;SDS011;1913;50.660;7.834;2022-12-16T09:43:09;2.20;;;1.63;;
3795;SDS011;1913;50.660;7.834;2022-12-16T09:46:12;2.60;;;1.40;;
3795;SDS011;1913;50.660;7.834;2022-12-16T09:52:30;1.70;;;1.53;;
3795;SDS011;1913;50.660;7.834;2022-12-16T09:55:29;3.77;;;1.63;;
3795;SDS011;1913;50.660;7.834;2022-12-16T09:58:18;1.93;;;1.60;;
3795;SDS011;1913;50.660;7.834;2022-12-16T10:01:17;13.20;;;7.20;;
3795;SDS011;1913;50.660;7.834;2022-12-16T10:04:04;36.87;;;20.37;;
3795;SDS011;1913;50.660;7.834;2022-12-16T10:06:53;42.23;;;19.77;;
3795;SDS011;1913;50.660;7.834;2022-12-16T10:15:48;25.97;;;12.63;;
3795;SDS011;1913;50.660;7.834;2022-12-16T10:24:36;13.30;;;9.80;;
3795;SDS011;1913;50.660;7.834;2022-12-16T10:27:31;15.70;;;10.43;;
3795;SDS011;1913;50.660;7.834;2022-12-16T10:30:26;16.63;;;9.47;;
3795;SDS011;1913;50.660;7.834;2022-12-16T10:33:18;11.30;;;7.87;;
3795;SDS011;1913;50.660;7.834;2022-12-16T10:36:12;10.70;;;7.07;;
3795;SDS011;1913;50.660;7.834;2022-12-16T10:39:01;10.50;;;7.70;;
3795;SDS011;1913;50.660;7.834;2022-12-16T10:41:56;14.50;;;7.77;;
3795;SDS011;1913;50.660;7.834;2022-12-16T10:44:51;12.63;;;7.67;;
3795;SDS011;1913;50.660;7.834;2022-12-16T10:47:38;14.60;;;7.30;;
3795;SDS011;1913;50.660;7.834;2022-12-16T10:50:23;12.13;;;7.27;;
3795;SDS011;1913;50.660;7.834;2022-12-16T10:53:11;12.53;;;7.30;;
3795;SDS011;1913;50.660;7.834;2022-12-16T10:59:08;14.90;;;7.90;;
3795;SDS011;1913;50.660;7.834;2022-12-16T11:02:02;14.50;;;8.23;;
3795;SDS011;1913;50.660;7.834;2022-12-16T11:04:57;12.90;;;7.57;;
3795;SDS011;1913;50.660;7.834;2022-12-16T11:10:30;12.63;;;7.20;;
3795;SDS011;1913;50.660;7.834;2022-12-16T11:16:09;15.90;;;8.90;;
3795;SDS011;1913;50.660;7.834;2022-12-16T11:18:55;12.50;;;6.93;;
3795;SDS011;1913;50.660;7.834;2022-12-16T11:21:39;9.10;;;6.17;;
3795;SDS011;1913;50.660;7.834;2022-12-16T11:24:23;9.17;;;6.00;;
3795;SDS011;1913;50.660;7.834;2022-12-16T11:33:23;6.57;;;4.03;;
3795;SDS011;1913;50.660;7.834;2022-12-16T11:36:18;5.13;;;4.00;;
3795;SDS011;1913;50.660;7.834;2022-12-16T11:39:05;11.97;;;5.10;;
3795;SDS011;1913;50.660;7.834;2022-12-16T11:41:56;9.93;;;5.60;;
3795;SDS011;1913;50.660;7.834;2022-12-16T11:44:43;10.43;;;7.37;;
3795;SDS011;1913;50.660;7.834;2022-12-16T11:47:39;7.80;;;5.40;;
3795;SDS011;1913;50.660;7.834;2022-12-16T11:50:25;13.73;;;6.13;;
3795;SDS011;1913;50.660;7.834;2022-12-16T11:56:21;7.53;;;5.50;;
3795;SDS011;1913;50.660;7.834;2022-12-16T12:02:41;11.50;;;7.93;;
3795;SDS011;1913;50.660;7.834;2022-12-16T12:05:40;11.90;;;7.80;;
3795;SDS011;1913;50.660;7.834;2022-12-16T12:08:56;15.97;;;8.30;;
3795;SDS011;1913;50.660;7.834;2022-12-16T12:15:32;14.60;;;9.40;;
3795;SDS011;1913;50.660;7.834;2022-12-16T12:21:33;15.13;;;9.00;;
3795;SDS011;1913;50.660;7.834;2022-12-16T12:27:29;16.20;;;9.17;;
3795;SDS011;1913;50.660;7.834;2022-12-16T12:30:18;18.47;;;10.37;;
3795;SDS011;1913;50.660;7.834;2022-12-16T12:47:46;17.70;;;9.57;;
3795;SDS011;1913;50.660;7.834;2022-12-16T12:50:51;12.73;;;8.23;;
3795;SDS011;1913;50.660;7.834;2022-12-16T12:57:18;16.23;;;9.13;;
3795;SDS011;1913;50.660;7.834;2022-12-16T13:05:52;16.00;;;9.73;;
3795;SDS011;1913;50.660;7.834;2022-12-16T13:08:41;15.20;;;9.27;;
3795;SDS011;1913;50.660;7.834;2022-12-16T13:11:32;14.00;;;8.90;;
3795;SDS011;1913;50.660;7.834;2022-12-16T13:17:13;14.10;;;9.20;;
3795;SDS011;1913;50.660;7.834;2022-12-16T13:20:01;14.67;;;8.60;;
3795;SDS011;1913;50.660;7.834;2022-12-16T13:22:47;19.97;;;10.30;;
3795;SDS011;1913;50.660;7.834;2022-12-16T13:28:41;13.23;;;7.83;;
3795;SDS011;1913;50.660;7.834;2022-12-16T13:31:58;15.07;;;8.80;;
3795;SDS011;1913;50.660;7.834;2022-12-16T13:38:01;13.20;;;8.40;;
3795;SDS011;1913;50.660;7.834;2022-12-16T13:44:52;13.47;;;8.43;;
3795;SDS011;1913;50.660;7.834;2022-12-16T13:50:33;14.63;;;10.03;;
3795;SDS011;1913;50.660;7.834;2022-12-16T13:53:23;17.07;;;10.60;;
3795;SDS011;1913;50.660;7.834;2022-12-16T13:56:23;24.33;;;12.10;;
3795;SDS011;1913;50.660;7.834;2022-12-16T13:59:15;17.90;;;9.40;;
3795;SDS011;1913;50.660;7.834;2022-12-16T14:02:14;19.07;;;9.80;;
3795;SDS011;1913;50.660;7.834;2022-12-16T14:05:07;16.30;;;9.33;;
3795;SDS011;1913;50.660;7.834;2022-12-16T14:08:01;24.73;;;13.03;;
3795;SDS011;1913;50.660;7.834;2022-12-16T14:10:47;21.90;;;12.33;;
3795;SDS011;1913;50.660;7.834;2022-12-16T14:17:07;25.40;;;13.77;;
3795;SDS011;1913;50.660;7.834;2022-12-16T14:20:20;21.93;;;12.20;;
3795;SDS011;1913;50.660;7.834;2022-12-16T14:23:24;20.63;;;11.33;;
3795;SDS011;1913;50.660;7.834;2022-12-16T14:26:23;19.50;;;10.93;;
3795;SDS011;1913;50.660;7.834;2022-12-16T14:29:21;23.13;;;11.50;;
3795;SDS011;1913;50.660;7.834;2022-12-16T14:32:18;21.67;;;11.77;;
3795;SDS011;1913;50.660;7.834;2022-12-16T14:35:10;23.90;;;14.20;;
3795;SDS011;1913;50.660;7.834;2022-12-16T14:37:57;22.50;;;12.10;;
3795;SDS011;1913;50.660;7.834;2022-12-16T14:41:09;19.70;;;10.57;;
3795;SDS011;1913;50.660;7.834;2022-12-16T14:43:54;20.53;;;11.40;;
3795;SDS011;1913;50.660;7.834;2022-12-16T14:46:39;24.20;;;13.10;;
3795;SDS011;1913;50.660;7.834;2022-12-16T14:49:31;27.00;;;13.40;;
3795;SDS011;1913;50.660;7.834;2022-12-16T14:55:04;17.83;;;10.60;;
3795;SDS011;1913;50.660;7.834;2022-12-16T15:01:41;15.80;;;10.43;;
3795;SDS011;1913;50.660;7.834;2022-12-16T15:04:09;15.73;;;10.10;;
3795;SDS011;1913;50.660;7.834;2022-12-16T15:06:58;11.57;;;8.27;;
3795;SDS011;1913;50.660;7.834;2022-12-16T15:09:46;15.43;;;9.20;;
3795;SDS011;1913;50.660;7.834;2022-12-16T15:12:35;15.80;;;8.60;;
3795;SDS011;1913;50.660;7.834;2022-12-16T15:18:18;15.60;;;8.90;;
3795;SDS011;1913;50.660;7.834;2022-12-16T15:21:07;15.07;;;7.53;;
3795;SDS011;1913;50.660;7.834;2022-12-16T15:24:08;16.43;;;8.60;;
3795;SDS011;1913;50.660;7.834;2022-12-16T15:33:20;18.47;;;10.57;;
3795;SDS011;1913;50.660;7.834;2022-12-16T15:36:43;22.07;;;11.07;;
3795;SDS011;1913;50.660;7.834;2022-12-16T15:39:46;15.70;;;8.30;;
3795;SDS011;1913;50.660;7.834;2022-12-16T15:42:32;26.33;;;12.30;;
3795;SDS011;1913;50.660;7.834;2022-12-16T15:45:27;33.00;;;14.27;;
3795;SDS011;1913;50.660;7.834;2022-12-16T15:48:17;24.53;;;12.13;;
3795;SDS011;1913;50.660;7.834;2022-12-16T15:54:18;16.30;;;9.47;;
3795;SDS011;1913;50.660;7.834;2022-12-16T15:57:24;17.03;;;9.03;;
3795;SDS011;1913;50.660;7.834;2022-12-16T16:09:14;17.50;;;9.17;;
3795;SDS011;1913;50.660;7.834;2022-12-16T16:12:06;22.90;;;10.33;;
3795;SDS011;1913;50.660;7.834;2022-12-16T16:14:54;21.93;;;9.30;;
3795;SDS011;1913;50.660;7.834;2022-12-16T16:17:39;20.67;;;9.90;;
3795;SDS011;1913;50.660;7.834;2022-12-16T16:20:23;22.77;;;9.47;;
3795;SDS011;1913;50.660;7.834;2022-12-16T16:23:11;18.60;;;9.20;;
3795;SDS011;1913;50.660;7.834;2022-12-16T16:25:55;17.63;;;9.33;;
3795;SDS011;1913;50.660;7.834;2022-12-16T16:28:41;17.00;;;8.53;;
3795;SDS011;1913;50.660;7.834;2022-12-16T16:31:26;19.27;;;8.47;;
3795;SDS011;1913;50.660;7.834;2022-12-16T16:34:10;17.43;;;8.27;;
3795;SDS011;1913;50.660;7.834;2022-12-16T16:36:55;26.80;;;11.27;;
3795;SDS011;1913;50.660;7.834;2022-12-16T16:39:41;17.90;;;8.63;;
3795;SDS011;1913;50.660;7.834;2022-12-16T16:42:26;26.70;;;11.77;;
3795;SDS011;1913;50.660;7.834;2022-12-16T16:45:11;16.30;;;8.17;;
3795;SDS011;1913;50.660;7.834;2022-12-16T16:48:05;23.23;;;10.20;;
3795;SDS011;1913;50.660;7.834;2022-12-16T16:50:54;15.30;;;7.10;;
3795;SDS011;1913;50.660;7.834;2022-12-16T16:53:39;18.93;;;6.80;;
3795;SDS011;1913;50.660;7.834;2022-12-16T16:56:23;8.47;;;5.63;;
3795;SDS011;1913;50.660;7.834;2022-12-16T16:59:09;16.73;;;7.00;;
3795;SDS011;1913;50.660;7.834;2022-12-16T17:01:58;14.73;;;6.70;;
3795;SDS011;1913;50.660;7.834;2022-12-16T17:05:06;9.10;;;5.50;;
3795;SDS011;1913;50.660;7.834;2022-12-16T17:07:51;12.30;;;5.80;;
3795;SDS011;1913;50.660;7.834;2022-12-16T17:10:42;32.03;;;12.03;;
3795;SDS011;1913;50.660;7.834;2022-12-16T17:13:27;18.70;;;9.40;;
3795;SDS011;1913;50.660;7.834;2022-12-16T17:16:11;13.73;;;7.70;;
3795;SDS011;1913;50.660;7.834;2022-12-16T17:18:57;20.27;;;8.30;;
3795;SDS011;1913;50.660;7.834;2022-12-16T17:21:48;19.13;;;9.23;;
3795;SDS011;1913;50.660;7.834;2022-12-16T17:24:32;15.33;;;7.77;;
3795;SDS011;1913;50.660;7.834;2022-12-16T17:27:18;14.77;;;7.30;;
3795;SDS011;1913;50.660;7.834;2022-12-16T17:30:05;11.60;;;6.13;;
3795;SDS011;1913;50.660;7.834;2022-12-16T17:32:55;12.90;;;6.63;;
3795;SDS011;1913;50.660;7.834;2022-12-16T17:35:39;16.83;;;7.03;;
3795;SDS011;1913;50.660;7.834;2022-12-16T17:38:23;15.70;;;8.10;;
3795;SDS011;1913;50.660;7.834;2022-12-16T17:41:08;12.83;;;8.77;;
3795;SDS011;1913;50.660;7.834;2022-12-16T17:43:52;16.90;;;7.80;;
3795;SDS011;1913;50.660;7.834;2022-12-16T17:46:36;20.80;;;10.40;;
3795;SDS011;1913;50.660;7.834;2022-12-16T17:49:21;18.00;;;10.60;;
3795;SDS011;1913;50.660;7.834;2022-12-16T17:52:07;25.40;;;11.97;;
3795;SDS011;1913;50.660;7.834;2022-12-16T17:54:52;26.17;;;13.40;;
3795;SDS011;1913;50.660;7.834;2022-12-16T17:57:36;28.70;;;13.27;;
3795;SDS011;1913;50.660;7.834;2022-12-16T18:00:20;33.77;;;13.63;;
3795;SDS011;1913;50.660;7.834;2022-12-16T18:03:07;26.77;;;13.97;;
3795;SDS011;1913;50.660;7.834;2022-12-16T18:05:57;23.83;;;11.20;;
3795;SDS011;1913;50.660;7.834;2022-12-16T18:08:41;21.30;;;11.73;;
3795;SDS011;1913;50.660;7.834;2022-12-16T18:11:25;25.40;;;13.07;;
3795;SDS011;1913;50.660;7.834;2022-12-16T18:14:10;25.10;;;12.30;;
3795;SDS011;1913;50.660;7.834;2022-12-16T18:16:54;27.03;;;13.40;;
3795;SDS011;1913;50.660;7.834;2022-12-16T18:19:39;17.90;;;9.23;;
3795;SDS011;1913;50.660;7.834;2022-12-16T18:22:23;29.53;;;12.03;;
3795;SDS011;1913;50.660;7.834;2022-12-16T18:25:07;24.80;;;12.73;;
3795;SDS011;1913;50.660;7.834;2022-12-16T18:27:52;32.20;;;14.80;;
3795;SDS011;1913;50.660;7.834;2022-12-16T18:30:36;43.43;;;14.47;;
3795;SDS011;1913;50.660;7.834;2022-12-16T18:33:20;49.57;;;17.70;;
3795;SDS011;1913;50.660;7.834;2022-12-16T18:36:05;39.80;;;16.30;;
3795;SDS011;1913;50.660;7.834;2022-12-16T18:38:49;42.33;;;17.60;;
3795;SDS011;1913;50.660;7.834;2022-12-16T18:41:39;24.80;;;12.70;;
3795;SDS011;1913;50.660;7.834;2022-12-16T18:44:27;38.47;;;16.23;;
3795;SDS011;1913;50.660;7.834;2022-12-16T18:47:11;31.93;;;15.27;;
3795;SDS011;1913;50.660;7.834;2022-12-16T18:49:56;26.70;;;12.00;;
3795;SDS011;1913;50.660;7.834;2022-12-16T18:52:49;25.70;;;13.57;;
3795;SDS011;1913;50.660;7.834;2022-12-16T18:55:35;27.73;;;13.70;;
3795;SDS011;1913;50.660;7.834;2022-12-16T18:58:19;43.30;;;19.53;;
3795;SDS011;1913;50.660;7.834;2022-12-16T19:01:05;51.73;;;20.03;;
3795;SDS011;1913;50.660;7.834;2022-12-16T19:03:54;42.57;;;20.07;;
3795;SDS011;1913;50.660;7.834;2022-12-16T19:06:40;44.10;;;18.67;;
3795;SDS011;1913;50.660;7.834;2022-12-16T19:09:24;42.30;;;20.60;;
3795;SDS011;1913;50.660;7.834;2022-12-16T19:12:28;35.63;;;18.80;;
3795;SDS011;1913;50.660;7.834;2022-12-16T19:15:12;42.90;;;19.80;;
3795;SDS011;1913;50.660;7.834;2022-12-16T19:17:56;36.13;;;18.30;;
3795;SDS011;1913;50.660;7.834;2022-12-16T19:20:41;40.77;;;17.93;;
3795;SDS011;1913;50.660;7.834;2022-12-16T19:23:27;36.63;;;17.90;;